Flight Track Log - Related Links

Times and Time Zones

All times are in EDT time to prevent confusion due to time zone crossing. See the TRS9347 flight status page for this flight to view local times or setup timezone preferences in your user account.


Time Position Orientation Groundspeed Altitude Reporting Facility
EDT Latitude Longitude Course Direction KTS MPH feet Rate Location/Type
Thu 12:30:42 AM 30.2606 -81.9114 306° West 213 245 3,000  Level Jacksonville Center
Thu 12:31:06 AM 30.2817 -81.9447 306° West 270 311 4,900 4,800 Climbing Jacksonville Center
Thu 12:32:07 AM 30.3531 -81.9850 334° Northwest 287 330 9,800 4,000 Climbing Jacksonville Center
Thu 12:33:39 AM 30.4767 -82.0297 343° North 319 367 15,100 3,679 Climbing Jacksonville Center
Thu 12:35:39 AM 30.6692 -82.1028 342° North 356 410 22,800 3,633 Climbing Jacksonville Center
Thu 12:36:39 AM 30.7697 -82.1431 341° North 374 430 26,000 2,600 Climbing Jacksonville Center
Thu 12:37:39 AM 30.8742 -82.1808 343° North 379 436 28,000 1,000 Climbing Jacksonville Center
Thu 12:38:39 AM 30.9789 -82.2214 342° North 384 442 28,000  Level Jacksonville Center
Thu 12:39:39 AM 31.0814 -82.2594 342° North 384 442 28,000  Level Jacksonville Center
Thu 12:40:39 AM 31.1756 -82.3267 329° Northwest 384 442 28,000  Level Jacksonville Center
Thu 12:41:39 AM 31.2783 -82.3992 329° Northwest 400 460 28,000  Level Jacksonville Center
Thu 12:42:39 AM 31.3911 -82.4739 331° Northwest 420 483 28,000  Level Jacksonville Center
Thu 12:43:39 AM 31.4917 -82.5492 327° Northwest 420 483 28,000  Level Jacksonville Center
Thu 12:44:39 AM 31.5961 -82.6194 330° Northwest 425 489 28,000  Level Jacksonville Center
Thu 12:46:19 AM 31.7564 -82.7369 328° Northwest 424 488 28,000  Level Atlanta Center
Thu 12:47:19 AM 31.8511 -82.8164 325° Northwest 424 488 28,000  Level Atlanta Center
Thu 12:48:19 AM 31.9458 -82.9008 323° Northwest 429 494 28,000  Level Atlanta Center
Thu 12:49:19 AM 32.0406 -82.9853 323° Northwest 429 494 28,000  Level Atlanta Center
Thu 12:50:19 AM 32.1331 -83.0700 322° Northwest 429 494 28,000  Level Atlanta Center
Thu 12:51:19 AM 32.2278 -83.1550 323° Northwest 424 488 28,000  Level Atlanta Center
Thu 12:52:19 AM 32.3222 -83.2400 323° Northwest 424 488 28,000  Level Atlanta Center
Thu 12:53:19 AM 32.4186 -83.3228 324° Northwest 424 488 28,000  Level Atlanta Center
Thu 12:54:19 AM 32.5131 -83.4131 321° Northwest 429 494 28,000  Level Atlanta Center
Thu 12:55:19 AM 32.6075 -83.4989 323° Northwest 429 494 28,000  Level Atlanta Center
Thu 12:56:19 AM 32.7017 -83.5822 323° Northwest 424 488 28,000  Level Atlanta Center
Thu 12:57:19 AM 32.7958 -83.6706 322° Northwest 424 488 28,000 -2,050 Level Atlanta Center
Thu 12:58:19 AM 32.8942 -83.7642 321° Northwest 424 488 23,900 -4,200 Descending Atlanta Center
Thu 12:59:19 AM 32.9758 -83.8333 325° Northwest 424 488 19,600 -3,950 Descending Atlanta Center
Thu 01:00:19 AM 33.0697 -83.8975 330° Northwest 405 466 16,000 -3,200 Descending Atlanta Center
Thu 01:01:19 AM 33.1658 -83.9469 337° Northwest 386 444 13,200 -2,900 Descending Atlanta Center
Thu 01:02:19 AM 33.2703 -84.0042 335° Northwest 375 432 10,200 -1,850 Descending Atlanta Center
Thu 01:03:19 AM 33.3539 -84.0489 336° Northwest 345 397 9,500 -1,150 Descending Atlanta Center
Thu 01:04:19 AM 33.4269 -84.0886 336° Northwest 310 357 7,900 -1,672 Descending Atlanta Center
Thu 01:05:21 AM 33.5000 -84.1333 333° Northwest 285 328 6,100 -1,475 Descending Atlanta TRACON
Thu 01:06:21 AM 33.5667 -84.1667 337° Northwest 262 302 4,900 -950 Descending Atlanta TRACON
Thu 01:07:21 AM 33.6333 -84.2000 337° Northwest 226 260 4,200 -600 Descending Atlanta TRACON
Thu 01:08:21 AM 33.6500 -84.2500 292° West 189 217 3,700 -810 Descending Atlanta TRACON
Thu 01:09:27 AM 33.6500 -84.3167 270° West 164 189 2,500 -900 Descending Atlanta TRACON
Thu 01:10:21 AM 33.6500 -84.3500 270° West 119 137 1,900 -579 Descending Atlanta TRACON
Thu 01:11:21 AM 33.6500 -84.3833 270° West 110 127 1,400 -500 Descending Atlanta TRACON
Thu 01:13:00 AM 33.6333 -84.4167 275° West  Level FlightAware Approximate

Login

Don't have an account? Register now (free) for customized features, flight alerts, and more!